WMSA/SZB METAR and TAF weather

Enter ICAO airport designator
Station Type Date Time Source
WMSA METAR 2019/10/15 19:00 UTC NOAA

WMSA 151900Z 31004KT 6000 FEW017CB 25/24 Q1010


Station Type Date Time Source
WMSA Decoded METAR 2019/10/15 19:00 UTC NOAA

Subang/Sultan Abdul Aziz Shah Airport, Malaysia (WMSA) 03-07N 101-32E
Oct 15, 2019 - 03:00 PM EDT / 2019.10.15 1900 UTC
Wind: from the NW (310 degrees) at 5 MPH (4 KT):0
Visibility: 3 mile(s):0
Sky conditions: mostly clear
Weather: Cumulonimbus clouds observed
Temperature: 77 F (25 C)
Dew Point: 75 F (24 C)
Relative Humidity: 94%
Pressure (altimeter): 29.83 in. Hg (1010 hPa)
ob: WMSA 151900Z 31004KT 6000 FEW017CB 25/24 Q1010
cycle: 19

Station Type Date Time Source
WMSA TAF 2019/10/15 18:09 UTC NOAA

TAF WMSA 151700Z 1518/1618 30005KT 9999 FEW026 PROB30
TEMPO 1519/1600 VRB02KT 3000 BR FEW008
BECMG 1602/1603 15005KT FEW017CB
TEMPO 1607/1611 29010KT 2000 TSRA FEW010 FEW016CB SCT018

Example: see airport list